Time;durP1;ratioP1;P1;durP2;ratioP2;P2;SDS_P1;SDS_P2;PMS_P1;PMS_P2;Temp;Humidity;BMP_temperature;BMP_pressure;BME280_temperature;BME280_humidity;BME280_pressure;Samples;Min_cycle;Max_cycle;Signal;HPM_P1;HPM_P2
2022/10/29 00:01:55;;;;;;;3.67;2.95;;;18.00;72.80;;;;;;5056443;28;20179;-67
2022/10/29 00:04:20;;;;;;;6.15;3.35;;;18.00;72.80;;;;;;5056007;28;20203;-67
2022/10/29 00:06:49;;;;;;;3.92;3.30;;;17.90;72.80;;;;;;5055398;28;20167;-66
2022/10/29 00:09:15;;;;;;;3.90;3.50;;;17.90;72.70;;;;;;5055724;28;20526;-67
2022/10/29 00:11:40;;;;;;;4.22;3.05;;;18.00;72.80;;;;;;5056142;28;20175;-67
2022/10/29 00:14:05;;;;;;;4.45;3.28;;;18.00;72.80;;;;;;5054857;28;20226;-67
2022/10/29 00:16:36;;;;;;;3.90;3.03;;;17.90;72.70;;;;;;5055939;28;20192;-67
2022/10/29 00:19:02;;;;;;;4.20;2.95;;;17.90;72.80;;;;;;5055854;28;20235;-67
2022/10/29 00:21:28;;;;;;;3.95;3.42;;;17.90;72.70;;;;;;5055425;28;20179;-67
2022/10/29 00:23:55;;;;;;;4.20;3.00;;;17.90;72.70;;;;;;5056043;28;20182;-67
2022/10/29 00:26:21;;;;;;;4.40;3.22;;;17.90;72.70;;;;;;5054856;28;20175;-66
2022/10/29 00:28:46;;;;;;;3.40;2.70;;;17.90;72.70;;;;;;5055647;28;20532;-67
2022/10/29 00:31:14;;;;;;;3.80;3.13;;;17.90;72.70;;;;;;5055340;28;20179;-67
2022/10/29 00:33:39;;;;;;;5.43;3.47;;;17.90;72.70;;;;;;5055136;28;20179;-67
2022/10/29 00:36:18;;;;;;;3.33;3.03;;;17.90;72.70;;;;;;5055515;28;20167;-67
2022/10/29 00:38:47;;;;;;;3.92;3.03;;;17.90;72.70;;;;;;5055731;28;20186;-67
2022/10/29 00:41:14;;;;;;;3.20;2.90;;;17.90;72.70;;;;;;5054428;28;20505;-67
2022/10/29 00:43:42;;;;;;;3.05;2.75;;;17.90;72.60;;;;;;5055886;28;20179;-67
2022/10/29 00:46:12;;;;;;;3.55;3.22;;;17.90;72.70;;;;;;5054404;28;20626;-67
2022/10/29 00:48:44;;;;;;;3.22;2.78;;;17.90;72.70;;;;;;5054682;28;20187;-67
2022/10/29 00:51:10;;;;;;;3.58;3.25;;;17.90;72.70;;;;;;5053874;28;20650;-67
2022/10/29 00:53:37;;;;;;;3.70;2.90;;;17.90;72.60;;;;;;5037515;28;20187;-67
2022/10/29 00:56:03;;;;;;;4.05;3.50;;;17.90;72.60;;;;;;5052835;28;20598;-67
2022/10/29 00:58:29;;;;;;;4.57;3.40;;;17.90;72.60;;;;;;5053971;28;20175;-67
2022/10/29 01:00:54;;;;;;;3.42;2.95;;;17.90;72.60;;;;;;5054058;28;20254;-67
2022/10/29 01:03:20;;;;;;;3.45;2.92;;;17.90;72.60;;;;;;5054281;28;20234;-67
2022/10/29 01:05:45;;;;;;;3.20;2.50;;;17.90;72.60;;;;;;5055059;28;20264;-67
2022/10/29 01:08:12;;;;;;;4.22;2.90;;;17.90;72.60;;;;;;5054775;28;20513;-66
2022/10/29 01:10:58;;;;;;;4.05;3.15;;;17.90;72.60;;;;;;5054224;28;20703;-66
2022/10/29 01:14:01;;;;;;;3.47;3.00;;;17.90;72.60;;;;;;5054670;28;20203;-67
2022/10/29 01:16:38;;;;;;;3.35;2.80;;;17.90;72.60;;;;;;5054146;28;20291;-67
2022/10/29 01:19:14;;;;;;;4.00;2.88;;;17.90;72.50;;;;;;5054768;28;20174;-67
2022/10/29 01:22:00;;;;;;;4.53;3.17;;;17.80;72.40;;;;;;5037827;28;20175;-67
2022/10/29 01:24:55;;;;;;;3.38;2.72;;;17.90;72.60;;;;;;5053600;28;20555;-67
2022/10/29 01:27:38;;;;;;;2.70;2.50;;;17.90;72.50;;;;;;5022324;28;20203;-66
2022/10/29 01:30:49;;;;;;;4.15;2.80;;;17.90;72.50;;;;;;5037138;28;20186;-66
2022/10/29 01:33:22;;;;;;;3.47;3.08;;;17.90;72.50;;;;;;5039702;28;20190;-66
2022/10/29 01:36:17;;;;;;;3.67;2.90;;;17.90;72.50;;;;;;5053399;28;20653;-67
2022/10/29 01:38:53;;;;;;;3.55;2.47;;;17.80;72.30;;;;;;5038383;28;20650;-67
2022/10/29 01:41:25;;;;;;;3.53;2.63;;;17.90;72.50;;;;;;5036832;28;20174;-67
2022/10/29 01:44:03;;;;;;;2.60;2.10;;;17.90;72.50;;;;;;5052242;28;20517;-67
2022/10/29 01:46:43;;;;;;;4.35;2.88;;;17.90;72.40;;;;;;5053484;28;20182;-67
2022/10/29 01:49:14;;;;;;;2.78;2.33;;;17.90;72.40;;;;;;5037339;28;20552;-66
2022/10/29 01:51:39;;;;;;;3.83;2.60;;;17.80;72.30;;;;;;5052345;28;20254;-67
2022/10/29 01:54:07;;;;;;;2.95;2.30;;;17.90;72.40;;;;;;5036140;28;20699;-67
2022/10/29 01:56:33;;;;;;;4.00;2.67;;;17.90;72.30;;;;;;5054412;28;20183;-67
2022/10/29 01:58:58;;;;;;;3.67;2.63;;;17.90;72.40;;;;;;5053247;28;20218;-67
2022/10/29 02:01:46;;;;;;;2.83;2.38;;;17.80;72.20;;;;;;5054012;28;20179;-67
2022/10/29 02:04:22;;;;;;;5.28;2.85;;;17.80;72.20;;;;;;5052581;28;20210;-67
2022/10/29 02:07:12;;;;;;;3.70;2.35;;;17.90;72.30;;;;;;5051771;28;20262;-66
2022/10/29 02:10:16;;;;;;;3.08;2.42;;;17.80;72.20;;;;;;5052749;28;20186;-66
2022/10/29 02:12:46;;;;;;;3.15;2.78;;;17.80;72.20;;;;;;5044820;28;20713;-66
2022/10/29 02:15:16;;;;;;;2.85;2.33;;;17.80;72.20;;;;;;5053188;28;20233;-67
2022/10/29 02:17:42;;;;;;;3.10;2.80;;;17.80;72.20;;;;;;5052596;28;20203;-66
2022/10/29 02:20:09;;;;;;;2.50;2.20;;;17.80;72.20;;;;;;5051394;28;20202;-67
2022/10/29 02:22:35;;;;;;;2.97;2.55;;;17.80;72.20;;;;;;5053748;28;20210;-66
2022/10/29 02:25:00;;;;;;;2.78;2.55;;;17.80;72.10;;;;;;5051965;28;20693;-67
2022/10/29 02:27:26;;;;;;;2.75;2.33;;;17.80;72.10;;;;;;5051552;28;20634;-66
2022/10/29 02:29:51;;;;;;;3.78;2.70;;;17.80;72.10;;;;;;5053507;28;20198;-66
2022/10/29 02:32:17;;;;;;;2.88;2.55;;;17.80;72.10;;;;;;5053154;28;20171;-65
2022/10/29 02:34:42;;;;;;;3.28;2.50;;;17.80;72.30;;;;;;5052669;28;20266;-66
2022/10/29 02:37:08;;;;;;;2.92;2.63;;;17.80;72.10;;;;;;5053056;28;20171;-66
2022/10/29 02:39:33;;;;;;;3.45;2.53;;;17.80;72.10;;;;;;5053236;28;20202;-66
2022/10/29 02:41:59;;;;;;;4.40;2.50;;;17.80;72.10;;;;;;5052431;28;20631;-66
2022/10/29 02:44:24;;;;;;;2.53;2.30;;;17.80;72.00;;;;;;5053125;28;20569;-66
2022/10/29 02:46:50;;;;;;;3.70;2.47;;;17.80;72.00;;;;;;5053214;28;20171;-66
2022/10/29 02:49:15;;;;;;;7.53;2.70;;;17.80;72.00;;;;;;5052186;28;20179;-66
2022/10/29 02:51:41;;;;;;;4.90;2.90;;;17.80;72.00;;;;;;5052985;28;20175;-66
2022/10/29 02:54:06;;;;;;;2.95;2.45;;;17.80;72.00;;;;;;5052051;28;20171;-66
2022/10/29 02:56:32;;;;;;;2.75;2.30;;;17.80;72.00;;;;;;5053001;28;20262;-66
2022/10/29 02:58:57;;;;;;;3.60;2.63;;;17.80;72.00;;;;;;5052749;28;20604;-66
2022/10/29 03:01:23;;;;;;;3.58;2.50;;;17.70;71.90;;;;;;5052257;28;20229;-66
2022/10/29 03:03:48;;;;;;;3.60;2.50;;;17.80;71.90;;;;;;5052887;28;20182;-66
2022/10/29 03:06:15;;;;;;;4.18;2.50;;;17.70;71.90;;;;;;5052715;28;20179;-66
2022/10/29 03:08:40;;;;;;;4.55;2.70;;;17.80;71.90;;;;;;5051949;28;20190;-66
2022/10/29 03:11:06;;;;;;;3.15;2.78;;;17.70;71.90;;;;;;5051728;28;20183;-66
2022/10/29 03:13:31;;;;;;;3.83;2.60;;;17.80;72.00;;;;;;5052360;28;20652;-66
2022/10/29 03:15:57;;;;;;;4.53;2.40;;;17.80;71.90;;;;;;5051840;28;20183;-66
2022/10/29 03:18:22;;;;;;;2.85;2.40;;;17.70;71.80;;;;;;5052916;28;20174;-66
2022/10/29 03:20:48;;;;;;;4.82;2.53;;;17.70;71.90;;;;;;5052677;28;20268;-67
2022/10/29 03:23:13;;;;;;;3.50;2.53;;;17.80;71.90;;;;;;5051743;28;20178;-67
2022/10/29 03:25:39;;;;;;;4.22;2.33;;;17.80;71.90;;;;;;5052666;28;20623;-66
2022/10/29 03:28:05;;;;;;;2.60;2.40;;;17.70;71.90;;;;;;5052331;28;20178;-67
2022/10/29 03:30:30;;;;;;;3.65;2.28;;;17.80;71.90;;;;;;5052092;28;20194;-66
2022/10/29 03:32:56;;;;;;;3.22;2.33;;;17.70;71.80;;;;;;5052795;28;20167;-66
2022/10/29 03:35:21;;;;;;;2.92;2.30;;;17.70;71.80;;;;;;5052634;28;20178;-66
2022/10/29 03:37:50;;;;;;;3.35;2.40;;;17.70;71.80;;;;;;5051940;28;20199;-67
2022/10/29 03:40:16;;;;;;;3.15;2.70;;;17.80;71.80;;;;;;5052149;28;20174;-67
2022/10/29 03:42:41;;;;;;;5.60;3.10;;;17.70;71.80;;;;;;5052417;28;20175;-66
2022/10/29 03:45:08;;;;;;;2.85;2.58;;;17.70;71.80;;;;;;5051338;28;20692;-67
2022/10/29 03:47:33;;;;;;;3.80;2.70;;;17.70;71.80;;;;;;5052349;28;20183;-66
2022/10/29 03:49:59;;;;;;;3.38;2.22;;;17.70;71.80;;;;;;5052127;28;20261;-66
2022/10/29 03:52:24;;;;;;;4.60;2.67;;;17.70;71.80;;;;;;5051731;28;20262;-66
2022/10/29 03:54:50;;;;;;;2.83;2.42;;;17.70;71.70;;;;;;5052269;28;20186;-66
2022/10/29 03:57:15;;;;;;;5.18;2.42;;;17.70;71.70;;;;;;5051382;28;20183;-66
2022/10/29 03:59:41;;;;;;;3.22;2.63;;;17.70;71.80;;;;;;5052455;28;20175;-66
2022/10/29 04:02:06;;;;;;;2.78;2.30;;;17.70;71.80;;;;;;5052148;28;20170;-66
2022/10/29 04:04:32;;;;;;;2.53;2.33;;;17.70;71.80;;;;;;5051671;28;20210;-66
2022/10/29 04:06:58;;;;;;;2.38;2.17;;;17.70;71.80;;;;;;5051931;28;20202;-65
2022/10/29 04:09:23;;;;;;;3.30;2.70;;;17.70;71.80;;;;;;5052153;28;20533;-66
2022/10/29 04:11:49;;;;;;;2.40;2.20;;;17.70;71.80;;;;;;5051472;28;20186;-66
2022/10/29 04:14:14;;;;;;;4.47;2.60;;;17.70;71.80;;;;;;5051887;28;20218;-67
2022/10/29 04:16:40;;;;;;;3.22;2.50;;;17.70;71.70;;;;;;5052124;28;20214;-66
2022/10/29 04:19:05;;;;;;;3.58;2.80;;;17.70;71.70;;;;;;5051261;28;20183;-66
2022/10/29 04:21:31;;;;;;;2.78;2.40;;;17.70;71.70;;;;;;5052659;28;20182;-66
2022/10/29 04:23:56;;;;;;;3.00;2.60;;;17.70;71.70;;;;;;5055568;28;20178;-67
2022/10/29 04:26:22;;;;;;;2.85;2.25;;;17.70;71.70;;;;;;5055000;28;20190;-67
2022/10/29 04:28:48;;;;;;;3.58;2.70;;;17.70;71.70;;;;;;5055999;28;20179;-67
2022/10/29 04:31:14;;;;;;;3.28;2.70;;;17.70;71.80;;;;;;5055697;28;20278;-66
2022/10/29 04:33:39;;;;;;;2.50;2.30;;;17.70;71.70;;;;;;5055129;28;20237;-66
2022/10/29 04:36:05;;;;;;;3.60;2.33;;;17.70;71.70;;;;;;5055424;28;20608;-66
2022/10/29 04:38:31;;;;;;;3.72;2.67;;;17.70;71.70;;;;;;5055557;28;20175;-67
2022/10/29 04:41:00;;;;;;;4.93;2.83;;;17.70;71.70;;;;;;5054529;28;20182;-67
2022/10/29 04:43:26;;;;;;;3.10;2.58;;;17.70;71.70;;;;;;5055687;28;20224;-67
2022/10/29 04:45:52;;;;;;;3.25;2.58;;;17.70;71.70;;;;;;5055659;28;20300;-67
2022/10/29 04:48:18;;;;;;;3.00;2.53;;;17.70;71.70;;;;;;5054391;28;20171;-66
2022/10/29 04:50:43;;;;;;;4.05;2.67;;;17.70;71.70;;;;;;5055419;28;20716;-67
2022/10/29 04:53:10;;;;;;;2.85;2.60;;;17.70;71.70;;;;;;5055103;28;20536;-66
2022/10/29 04:55:37;;;;;;;2.55;2.22;;;17.70;71.70;;;;;;5054478;28;20199;-67
2022/10/29 04:58:03;;;;;;;2.85;2.60;;;17.70;71.70;;;;;;5055148;28;20793;-68
2022/10/29 05:00:29;;;;;;;3.10;2.33;;;17.70;71.70;;;;;;5055343;28;20190;-67
2022/10/29 05:02:54;;;;;;;2.55;2.20;;;17.70;71.60;;;;;;5054408;28;20633;-67
2022/10/29 05:05:20;;;;;;;3.63;2.80;;;17.60;71.50;;;;;;5054753;28;20211;-66
2022/10/29 05:07:45;;;;;;;3.25;2.60;;;17.70;71.60;;;;;;5054430;28;20187;-66
2022/10/29 05:10:11;;;;;;;3.53;2.60;;;17.60;71.50;;;;;;5054636;28;20171;-67
2022/10/29 05:12:37;;;;;;;4.35;2.53;;;17.60;71.50;;;;;;5054849;28;20171;-67
2022/10/29 05:15:03;;;;;;;3.72;2.67;;;17.70;71.60;;;;;;5053990;28;20281;-68
2022/10/29 05:17:28;;;;;;;3.40;2.40;;;17.60;71.50;;;;;;5054907;28;20175;-67
2022/10/29 05:19:54;;;;;;;2.72;2.45;;;17.60;71.50;;;;;;5054528;28;20546;-67
2022/10/29 05:22:19;;;;;;;3.25;2.85;;;17.60;71.50;;;;;;5053691;28;20173;-67
2022/10/29 05:24:45;;;;;;;2.80;2.60;;;17.70;71.60;;;;;;5054499;28;20199;-67
2022/10/29 05:27:10;;;;;;;2.80;2.58;;;17.60;71.50;;;;;;5054302;28;20176;-66
2022/10/29 05:29:36;;;;;;;2.60;2.40;;;17.60;71.50;;;;;;5053980;28;20626;-66
2022/10/29 05:32:01;;;;;;;3.47;2.42;;;17.60;71.50;;;;;;5054495;28;20233;-66
2022/10/29 05:34:27;;;;;;;3.13;2.55;;;17.60;71.50;;;;;;5054180;28;20568;-66
2022/10/29 05:36:52;;;;;;;3.00;2.70;;;17.60;71.50;;;;;;5053847;28;20175;-66
2022/10/29 05:39:18;;;;;;;4.00;2.60;;;17.60;71.50;;;;;;5054260;28;20206;-67
2022/10/29 05:41:44;;;;;;;3.47;2.70;;;17.60;71.50;;;;;;5054314;28;20374;-67
2022/10/29 05:44:10;;;;;;;2.80;2.30;;;17.60;71.50;;;;;;5053426;28;20179;-67
2022/10/29 05:46:35;;;;;;;4.00;2.53;;;17.60;71.50;;;;;;5054299;28;20179;-67
2022/10/29 05:49:01;;;;;;;3.65;2.80;;;17.60;71.50;;;;;;5053916;28;20254;-67
2022/10/29 05:51:26;;;;;;;3.15;2.72;;;17.60;71.50;;;;;;5053517;28;20186;-66
2022/10/29 05:53:52;;;;;;;3.45;2.65;;;17.60;71.50;;;;;;5053940;28;20595;-66
2022/10/29 05:56:17;;;;;;;4.70;2.92;;;17.60;71.50;;;;;;5053795;28;20629;-67
2022/10/29 05:58:43;;;;;;;3.05;2.53;;;17.60;71.50;;;;;;5053533;28;20175;-67
2022/10/29 06:01:09;;;;;;;2.47;2.28;;;17.60;71.50;;;;;;5053845;28;20179;-67
2022/10/29 06:03:34;;;;;;;3.13;2.50;;;17.60;71.50;;;;;;5054018;28;20168;-67
2022/10/29 06:06:00;;;;;;;3.28;2.38;;;17.60;71.50;;;;;;5053015;28;20214;-66
2022/10/29 06:08:25;;;;;;;2.40;2.20;;;17.60;71.50;;;;;;5053846;28;20556;-66
2022/10/29 06:10:51;;;;;;;2.97;2.53;;;17.60;71.50;;;;;;5053621;28;20179;-66
2022/10/29 06:13:20;;;;;;;3.13;2.00;;;17.60;71.50;;;;;;5053436;28;20175;-67
2022/10/29 06:15:47;;;;;;;2.53;2.33;;;17.60;71.50;;;;;;5053627;28;20705;-67
2022/10/29 06:18:12;;;;;;;2.97;2.67;;;17.60;71.50;;;;;;5052596;28;20928;-67
2022/10/29 06:20:38;;;;;;;3.30;2.30;;;17.60;71.50;;;;;;5053643;28;20179;-67
2022/10/29 06:23:04;;;;;;;2.63;2.42;;;17.60;71.50;;;;;;5052864;28;20254;-67
2022/10/29 06:25:29;;;;;;;4.53;2.70;;;17.60;71.50;;;;;;5052952;28;20621;-66
2022/10/29 06:27:59;;;;;;;2.40;2.20;;;17.60;71.50;;;;;;5053596;28;20221;-66
2022/10/29 06:30:25;;;;;;;2.55;2.35;;;17.60;71.50;;;;;;5053670;28;20175;-66
2022/10/29 06:32:50;;;;;;;2.55;2.10;;;17.60;71.50;;;;;;5052908;28;20177;-66
2022/10/29 06:35:16;;;;;;;2.80;2.60;;;17.60;71.50;;;;;;5053142;28;20186;-66
2022/10/29 06:37:41;;;;;;;2.42;2.13;;;17.60;71.40;;;;;;5053174;28;20258;-67
2022/10/29 06:40:07;;;;;;;2.42;2.22;;;17.60;71.50;;;;;;5052443;28;20186;-67
2022/10/29 06:42:33;;;;;;;2.97;2.60;;;17.60;71.50;;;;;;5053110;28;20212;-67
2022/10/29 06:44:58;;;;;;;2.53;2.33;;;17.60;71.40;;;;;;5052183;28;20219;-67
2022/10/29 06:47:24;;;;;;;2.67;2.47;;;17.60;71.50;;;;;;5052785;28;20171;-67
2022/10/29 06:49:49;;;;;;;2.42;2.22;;;17.60;71.50;;;;;;5053012;28;20175;-67
2022/10/29 06:52:15;;;;;;;2.70;2.50;;;17.60;71.40;;;;;;5052854;28;20175;-67
2022/10/29 06:54:40;;;;;;;3.28;2.42;;;17.60;71.40;;;;;;5052314;28;20637;-67
2022/10/29 06:57:06;;;;;;;2.92;2.20;;;17.60;71.40;;;;;;5052821;28;20171;-67
2022/10/29 06:59:34;;;;;;;3.40;2.50;;;17.60;71.40;;;;;;5053136;28;20191;-67
2022/10/29 07:02:00;;;;;;;3.05;2.75;;;17.60;71.40;;;;;;5051805;28;20655;-67
2022/10/29 07:04:25;;;;;;;4.65;2.85;;;17.60;71.40;;;;;;5053040;28;20206;-66
2022/10/29 07:06:51;;;;;;;2.55;2.35;;;17.60;71.50;;;;;;5052602;28;20167;-66
2022/10/29 07:09:16;;;;;;;3.10;2.40;;;17.60;71.40;;;;;;5052056;28;20237;-67
2022/10/29 07:11:42;;;;;;;3.00;2.20;;;17.60;71.50;;;;;;5053024;28;20241;-67
2022/10/29 07:14:08;;;;;;;2.80;2.60;;;17.60;71.40;;;;;;5052329;28;20704;-67
2022/10/29 07:16:34;;;;;;;2.63;2.42;;;17.60;71.40;;;;;;5052773;28;20246;-68
2022/10/29 07:19:00;;;;;;;2.50;2.30;;;17.60;71.40;;;;;;5052426;28;20222;-67
2022/10/29 07:21:25;;;;;;;3.20;2.90;;;17.60;71.50;;;;;;5051885;28;20175;-67
2022/10/29 07:23:51;;;;;;;3.05;2.72;;;17.60;71.40;;;;;;5052943;28;20254;-67
2022/10/29 07:26:16;;;;;;;2.67;2.45;;;17.60;71.40;;;;;;5052257;28;20716;-67
2022/10/29 07:28:42;;;;;;;2.60;2.38;;;17.60;71.50;;;;;;5051991;28;20182;-66
2022/10/29 07:31:07;;;;;;;2.67;2.38;;;17.60;71.50;;;;;;5052470;28;20190;-66
2022/10/29 07:33:33;;;;;;;2.67;2.47;;;17.60;71.40;;;;;;5052453;28;20190;-66
2022/10/29 07:35:59;;;;;;;2.85;2.63;;;17.60;71.40;;;;;;5051607;28;20181;-67
2022/10/29 07:38:25;;;;;;;3.20;2.47;;;17.60;71.40;;;;;;5052592;28;20179;-67
2022/10/29 07:40:50;;;;;;;4.22;3.05;;;17.60;71.40;;;;;;5052673;28;20207;-67
2022/10/29 07:43:16;;;;;;;2.47;2.20;;;17.70;71.40;;;;;;5051749;28;20547;-67
2022/10/29 07:45:45;;;;;;;2.92;2.72;;;17.70;71.40;;;;;;5052480;28;20342;-67
2022/10/29 07:48:11;;;;;;;2.67;2.47;;;17.70;71.30;;;;;;5050789;28;20638;-67
2022/10/29 07:50:37;;;;;;;2.50;2.30;;;17.70;71.10;;;;;;5051784;28;20179;-67
2022/10/29 07:53:03;;;;;;;2.47;2.28;;;17.80;71.10;;;;;;5052333;28;20182;-67
2022/10/29 07:55:28;;;;;;;2.45;2.25;;;17.80;71.80;;;;;;5053096;28;20183;-67
2022/10/29 07:57:59;;;;;;;3.15;2.35;;;17.80;70.90;;;;;;5055809;28;20177;-67
2022/10/29 08:00:25;;;;;;;2.33;1.92;;;17.90;70.60;;;;;;5056311;28;20183;-67
2022/10/29 08:02:52;;;;;;;2.80;2.40;;;17.80;70.60;;;;;;5056236;28;20176;-67
2022/10/29 08:05:18;;;;;;;2.47;2.28;;;17.90;70.80;;;;;;5055117;28;20284;-66
2022/10/29 08:07:43;;;;;;;3.03;2.40;;;17.80;70.80;;;;;;5056478;28;20199;-66
2022/10/29 08:10:09;;;;;;;4.93;2.50;;;17.90;71.00;;;;;;5056054;28;20278;-66
2022/10/29 08:12:34;;;;;;;2.55;2.33;;;17.80;71.00;;;;;;5055560;28;20171;-66
2022/10/29 08:15:00;;;;;;;2.70;2.30;;;17.80;71.00;;;;;;5055635;28;20223;-67
2022/10/29 08:17:28;;;;;;;2.97;2.55;;;17.80;71.00;;;;;;5055770;28;20541;-68
2022/10/29 08:19:53;;;;;;;3.05;2.75;;;17.90;71.20;;;;;;5056143;28;20201;-68
2022/10/29 08:22:19;;;;;;;4.68;2.58;;;17.90;71.40;;;;;;5055654;28;20642;-66
2022/10/29 08:24:45;;;;;;;3.15;2.40;;;17.90;71.40;;;;;;5054995;28;20211;-66
2022/10/29 08:27:10;;;;;;;3.17;2.90;;;17.90;71.30;;;;;;5055704;28;20181;-66
2022/10/29 08:29:36;;;;;;;3.50;2.80;;;17.90;71.30;;;;;;5055942;28;20686;-65
2022/10/29 08:32:01;;;;;;;4.70;3.42;;;17.90;71.20;;;;;;5054637;28;20262;-68
2022/10/29 08:34:27;;;;;;;3.10;2.70;;;17.90;71.30;;;;;;5055897;28;20262;-67
2022/10/29 08:36:52;;;;;;;4.25;3.45;;;18.00;71.50;;;;;;5055919;28;20171;-67
2022/10/29 08:39:18;;;;;;;5.13;3.47;;;17.90;71.50;;;;;;5054669;28;20174;-67
2022/10/29 08:41:52;;;;;;;5.65;3.47;;;18.00;71.50;;;;;;5055621;28;20195;-68
2022/10/29 08:44:25;;;;;;;7.53;3.13;;;18.10;71.30;;;;;;5055323;28;20194;-68
2022/10/29 08:47:06;;;;;;;4.90;3.47;;;18.10;71.10;;;;;;5054701;28;20183;-68
2022/10/29 08:49:33;;;;;;;4.28;3.70;;;18.20;71.00;;;;;;5053938;28;20664;-67
2022/10/29 08:52:06;;;;;;;4.25;3.10;;;18.20;70.90;;;;;;5055233;28;20214;-67
2022/10/29 08:54:33;;;;;;;4.75;3.88;;;18.30;71.00;;;;;;5053405;28;20218;-67
2022/10/29 08:57:12;;;;;;;5.45;3.20;;;18.30;71.00;;;;;;5054033;28;20187;-68
2022/10/29 08:59:42;;;;;;;5.30;3.47;;;18.20;71.10;;;;;;5039073;28;20233;-68
2022/10/29 09:02:14;;;;;;;5.82;3.75;;;18.20;71.20;;;;;;5054037;28;20182;-68
2022/10/29 09:04:39;;;;;;;5.72;3.42;;;18.20;71.30;;;;;;5055116;28;20207;-67
2022/10/29 09:07:33;;;;;;;4.05;3.20;;;18.20;71.30;;;;;;5053743;28;20182;-66
2022/10/29 09:10:01;;;;;;;4.03;3.30;;;18.20;71.40;;;;;;5054911;28;20185;-67
2022/10/29 09:12:32;;;;;;;4.25;3.47;;;18.30;71.40;;;;;;5055214;28;20323;-67
2022/10/29 09:15:25;;;;;;;4.07;3.60;;;18.20;71.40;;;;;;5053666;28;20597;-68
2022/10/29 09:18:06;;;;;;;5.63;3.20;;;18.20;71.50;;;;;;5054197;28;20175;-68
2022/10/29 09:20:43;;;;;;;5.55;3.22;;;18.20;71.60;;;;;;5054825;28;20618;-68
2022/10/29 09:23:33;;;;;;;5.00;3.40;;;18.30;71.50;;;;;;5037111;28;20262;-68
2022/10/29 09:26:04;;;;;;;5.30;3.20;;;18.30;71.40;;;;;;5054484;28;20222;-67
2022/10/29 09:28:44;;;;;;;6.03;3.08;;;18.20;72.30;;;;;;5052888;28;20661;-67
2022/10/29 09:31:36;;;;;;;4.45;3.60;;;18.30;71.60;;;;;;5053334;28;20658;-67
2022/10/29 09:34:07;;;;;;;3.88;3.17;;;18.30;71.60;;;;;;5053485;28;20182;-67
2022/10/29 09:36:33;;;;;;;5.32;3.30;;;18.20;72.50;;;;;;5036537;28;20650;-67
2022/10/29 09:39:01;;;;;;;4.68;3.17;;;18.20;71.80;;;;;;5054120;28;20171;-67
2022/10/29 09:41:30;;;;;;;5.25;3.67;;;18.20;71.70;;;;;;5053262;28;20182;-67
2022/10/29 09:44:13;;;;;;;3.75;3.10;;;18.20;71.80;;;;;;5053893;28;20175;-68
2022/10/29 09:47:28;;;;;;;5.15;3.38;;;18.20;71.90;;;;;;5038764;28;20277;-68
2022/10/29 09:50:15;;;;;;;3.47;3.03;;;18.20;71.90;;;;;;5024594;28;20184;-67
2022/10/29 09:52:42;;;;;;;4.40;3.30;;;18.20;72.00;;;;;;5053546;28;20182;-67
2022/10/29 09:55:14;;;;;;;2.97;2.67;;;18.20;72.10;;;;;;5052962;28;20175;-68
2022/10/29 09:57:40;;;;;;;3.70;3.22;;;18.10;72.00;;;;;;5052327;28;20183;-68
2022/10/29 10:00:12;;;;;;;3.58;3.08;;;18.20;72.10;;;;;;5052773;28;20255;-67
2022/10/29 10:02:41;;;;;;;3.40;3.10;;;18.20;72.00;;;;;;5054003;28;20642;-67
2022/10/29 10:05:24;;;;;;;3.70;3.03;;;18.20;72.10;;;;;;5053004;28;20214;-67
2022/10/29 10:08:18;;;;;;;8.98;3.47;;;18.10;72.20;;;;;;5052835;28;20179;-67
2022/10/29 10:11:07;;;;;;;4.95;3.30;;;18.10;72.20;;;;;;5048516;28;20179;-67
2022/10/29 10:13:37;;;;;;;5.88;3.92;;;18.10;73.00;;;;;;5052697;28;20609;-67
2022/10/29 10:16:04;;;;;;;5.47;3.28;;;18.10;72.10;;;;;;5036060;28;20217;-67
2022/10/29 10:18:30;;;;;;;3.83;3.10;;;18.10;72.20;;;;;;5053027;28;20201;-68
2022/10/29 10:21:22;;;;;;;3.90;3.50;;;18.10;72.10;;;;;;5053929;28;20666;-68
2022/10/29 10:23:52;;;;;;;3.70;3.33;;;18.20;72.20;;;;;;5053807;28;20622;-68
2022/10/29 10:26:38;;;;;;;4.65;3.13;;;18.10;72.10;;;;;;5052563;28;20662;-67
2022/10/29 10:29:03;;;;;;;3.42;2.90;;;18.10;72.10;;;;;;5053207;28;20187;-67
2022/10/29 10:31:29;;;;;;;5.60;3.40;;;18.10;72.20;;;;;;5052975;28;20167;-67
2022/10/29 10:33:55;;;;;;;3.90;3.03;;;18.10;72.20;;;;;;5053727;28;20252;-67
2022/10/29 10:36:22;;;;;;;4.10;3.03;;;18.10;72.10;;;;;;5053343;28;20584;-67
2022/10/29 10:38:49;;;;;;;3.50;3.00;;;18.10;72.10;;;;;;5052678;28;20678;-67
2022/10/29 10:41:15;;;;;;;3.33;2.97;;;18.10;72.10;;;;;;5051973;28;20187;-68
2022/10/29 10:43:45;;;;;;;3.40;3.10;;;18.20;72.10;;;;;;5052062;28;20182;-68
2022/10/29 10:46:20;;;;;;;3.85;3.00;;;18.20;72.10;;;;;;5052546;28;20239;-67
2022/10/29 10:48:58;;;;;;;3.88;2.88;;;18.20;72.00;;;;;;5053324;28;20177;-67
2022/10/29 10:51:26;;;;;;;3.70;3.30;;;18.30;71.70;;;;;;5053392;28;20217;-67
2022/10/29 10:53:52;;;;;;;3.80;3.40;;;18.30;71.70;;;;;;5052425;28;20183;-67
2022/10/29 10:56:19;;;;;;;3.42;3.13;;;18.30;71.70;;;;;;5051844;28;20178;-67
2022/10/29 10:59:05;;;;;;;3.75;3.13;;;18.30;71.60;;;;;;5053366;28;20175;-68
2022/10/29 11:01:35;;;;;;;3.83;2.83;;;18.40;71.40;;;;;;5052440;28;20541;-67
2022/10/29 11:04:12;;;;;;;4.38;3.20;;;18.50;71.20;;;;;;5035290;28;20179;-67
2022/10/29 11:06:48;;;;;;;3.35;2.90;;;18.60;71.00;;;;;;5052260;28;20549;-66
2022/10/29 11:09:17;;;;;;;5.13;3.05;;;18.50;71.00;;;;;;5052825;28;20179;-67
2022/10/29 11:11:45;;;;;;;7.45;3.40;;;18.50;71.30;;;;;;5051756;28;20179;-67
2022/10/29 11:14:25;;;;;;;3.35;2.53;;;18.50;71.30;;;;;;5051744;28;20660;-67
2022/10/29 11:16:54;;;;;;;3.78;3.42;;;18.40;71.40;;;;;;5051739;28;20183;-67
2022/10/29 11:19:27;;;;;;;3.45;2.70;;;18.50;71.40;;;;;;5052595;28;20182;-67
2022/10/29 11:22:21;;;;;;;3.20;2.10;;;18.40;71.40;;;;;;5052039;28;20553;-67
2022/10/29 11:24:52;;;;;;;4.53;2.70;;;18.50;71.40;;;;;;5050567;28;20215;-67
2022/10/29 11:27:39;;;;;;;3.72;3.03;;;18.50;71.40;;;;;;5051341;28;20695;-67
2022/10/29 11:30:08;;;;;;;4.13;3.00;;;18.60;71.50;;;;;;5052887;28;20707;-66
2022/10/29 11:32:58;;;;;;;3.28;2.90;;;18.50;71.60;;;;;;5059201;28;20185;-66
2022/10/29 11:35:46;;;;;;;6.35;3.53;;;18.50;71.70;;;;;;5058553;28;20248;-67
2022/10/29 11:38:22;;;;;;;2.92;2.63;;;18.50;71.80;;;;;;5059159;28;20174;-68
2022/10/29 11:41:04;;;;;;;3.67;3.05;;;18.50;71.60;;;;;;5058129;28;20270;-68
2022/10/29 11:43:30;;;;;;;2.80;2.50;;;18.50;71.70;;;;;;5057404;28;20738;-67
2022/10/29 11:46:47;;;;;;;3.42;3.08;;;18.60;71.70;;;;;;5059120;28;20211;-67
2022/10/29 11:49:46;;;;;;;4.53;3.13;;;18.60;71.60;;;;;;5046016;28;20205;-67
2022/10/29 11:52:13;;;;;;;4.50;2.97;;;18.70;71.50;;;;;;5058900;28;20199;-67
2022/10/29 11:55:07;;;;;;;3.63;3.08;;;18.70;71.50;;;;;;5057957;28;20669;-67
2022/10/29 11:58:00;;;;;;;3.50;3.20;;;18.70;71.50;;;;;;5057287;28;20175;-67
2022/10/29 12:00:26;;;;;;;3.17;2.60;;;18.70;71.50;;;;;;5057078;28;20644;-65
2022/10/29 12:02:55;;;;;;;3.70;3.17;;;18.80;71.50;;;;;;5056933;28;20941;-67
2022/10/29 12:05:50;;;;;;;5.05;3.33;;;18.80;71.40;;;;;;5057013;28;20695;-67
2022/10/29 12:08:39;;;;;;;5.93;3.42;;;18.80;71.80;;;;;;5056355;28;20544;-64
2022/10/29 12:11:29;;;;;;;6.25;3.80;;;18.80;72.00;;;;;;5056166;28;20179;-65
2022/10/29 12:13:55;;;;;;;5.65;3.30;;;18.90;72.40;;;;;;5056657;28;20218;-63
2022/10/29 12:16:39;;;;;;;4.97;3.35;;;19.00;72.10;;;;;;5057764;28;20532;-65
2022/10/29 12:19:21;;;;;;;6.40;3.42;;;19.00;72.00;;;;;;5057959;28;20626;-65
2022/10/29 12:22:01;;;;;;;6.32;3.63;;;19.00;72.10;;;;;;5041785;28;20237;-67
2022/10/29 12:24:41;;;;;;;6.95;3.70;;;19.10;72.10;;;;;;5058044;28;20171;-64
2022/10/29 12:27:32;;;;;;;4.97;3.47;;;19.10;72.10;;;;;;5058528;28;20191;-68
2022/10/29 12:30:08;;;;;;;6.70;4.00;;;19.10;72.50;;;;;;5056648;28;20631;-65
2022/10/29 12:32:52;;;;;;;8.82;3.78;;;19.10;73.10;;;;;;5056962;28;20269;-64
2022/10/29 12:35:51;;;;;;;7.28;4.75;;;19.20;72.80;;;;;;5058260;28;20648;-67
2022/10/29 12:38:24;;;;;;;9.52;4.50;;;19.10;74.00;;;;;;5036556;28;20577;-61
2022/10/29 12:40:57;;;;;;;14.23;4.80;;;19.00;74.30;;;;;;5047339;28;20300;-68
2022/10/29 12:43:25;;;;;;;11.98;5.07;;;19.00;74.40;;;;;;5054750;28;20183;-64
2022/10/29 12:46:00;;;;;;;11.30;4.40;;;19.10;74.90;;;;;;5053714;28;20207;-66
2022/10/29 12:48:53;;;;;;;10.60;4.72;;;19.10;74.90;;;;;;5054987;28;20794;-64
2022/10/29 12:52:10;;;;;;;8.20;4.20;;;19.10;75.00;;;;;;5054535;28;20183;-64
2022/10/29 12:54:40;;;;;;;9.07;4.88;;;19.10;74.90;;;;;;5016721;28;20234;-68
2022/10/29 12:57:11;;;;;;;9.88;5.25;;;19.20;75.00;;;;;;5016521;28;20180;-68
2022/10/29 12:59:36;;;;;;;12.50;5.43;;;19.20;74.90;;;;;;5045944;28;20181;-66
2022/10/29 13:02:18;;;;;;;12.13;5.05;;;19.30;75.10;;;;;;5054532;28;20262;-72
2022/10/29 13:05:08;;;;;;;10.88;4.45;;;19.30;74.90;;;;;;5054812;28;20215;-69